sensor_id;sensor_type;location;lat;lon;timestamp;P1;durP1;ratioP1;P2;durP2;ratioP2
43248;SDS011;29216;51.248;6.808;2023-02-28T00:00:49;6.57;;;3.70;;
43248;SDS011;29216;51.248;6.808;2023-02-28T00:03:15;6.77;;;3.73;;
43248;SDS011;29216;51.248;6.808;2023-02-28T00:05:40;6.17;;;3.80;;
43248;SDS011;29216;51.248;6.808;2023-02-28T00:08:06;5.67;;;3.50;;
43248;SDS011;29216;51.248;6.808;2023-02-28T00:10:33;7.13;;;4.37;;
43248;SDS011;29216;51.248;6.808;2023-02-28T00:13:00;6.03;;;3.80;;
43248;SDS011;29216;51.248;6.808;2023-02-28T00:15:30;9.03;;;3.67;;
43248;SDS011;29216;51.248;6.808;2023-02-28T00:17:56;7.50;;;3.73;;
43248;SDS011;29216;51.248;6.808;2023-02-28T00:20:22;10.00;;;4.03;;
43248;SDS011;29216;51.248;6.808;2023-02-28T00:22:49;7.00;;;3.40;;
43248;SDS011;29216;51.248;6.808;2023-02-28T00:25:17;9.50;;;4.10;;
43248;SDS011;29216;51.248;6.808;2023-02-28T00:27:44;6.43;;;3.83;;
43248;SDS011;29216;51.248;6.808;2023-02-28T00:30:12;5.93;;;3.67;;
43248;SDS011;29216;51.248;6.808;2023-02-28T00:32:41;5.60;;;3.90;;
43248;SDS011;29216;51.248;6.808;2023-02-28T00:35:07;6.47;;;4.40;;
43248;SDS011;29216;51.248;6.808;2023-02-28T00:37:33;6.57;;;3.67;;
43248;SDS011;29216;51.248;6.808;2023-02-28T00:39:59;3.70;;;3.23;;
43248;SDS011;29216;51.248;6.808;2023-02-28T00:42:25;9.57;;;4.10;;
43248;SDS011;29216;51.248;6.808;2023-02-28T00:44:51;7.67;;;4.10;;
43248;SDS011;29216;51.248;6.808;2023-02-28T00:47:17;7.13;;;4.00;;
43248;SDS011;29216;51.248;6.808;2023-02-28T00:49:42;10.07;;;3.63;;
43248;SDS011;29216;51.248;6.808;2023-02-28T00:52:08;10.73;;;4.33;;
43248;SDS011;29216;51.248;6.808;2023-02-28T00:54:34;5.67;;;3.40;;
43248;SDS011;29216;51.248;6.808;2023-02-28T00:56:59;7.83;;;4.00;;
43248;SDS011;29216;51.248;6.808;2023-02-28T00:59:25;4.77;;;3.70;;
43248;SDS011;29216;51.248;6.808;2023-02-28T01:01:51;7.73;;;3.73;;
43248;SDS011;29216;51.248;6.808;2023-02-28T01:04:16;7.63;;;4.10;;
43248;SDS011;29216;51.248;6.808;2023-02-28T01:06:42;7.13;;;3.57;;
43248;SDS011;29216;51.248;6.808;2023-02-28T01:09:08;7.80;;;4.13;;
43248;SDS011;29216;51.248;6.808;2023-02-28T01:11:35;5.67;;;3.70;;
43248;SDS011;29216;51.248;6.808;2023-02-28T01:14:01;6.30;;;3.80;;
43248;SDS011;29216;51.248;6.808;2023-02-28T01:16:27;5.27;;;3.60;;
43248;SDS011;29216;51.248;6.808;2023-02-28T01:18:53;6.13;;;3.70;;
43248;SDS011;29216;51.248;6.808;2023-02-28T01:21:19;6.37;;;3.53;;
43248;SDS011;29216;51.248;6.808;2023-02-28T01:23:46;7.37;;;4.10;;
43248;SDS011;29216;51.248;6.808;2023-02-28T01:26:16;7.60;;;4.03;;
43248;SDS011;29216;51.248;6.808;2023-02-28T01:28:44;7.03;;;4.07;;
43248;SDS011;29216;51.248;6.808;2023-02-28T01:31:10;6.93;;;4.17;;
43248;SDS011;29216;51.248;6.808;2023-02-28T01:33:37;6.97;;;4.30;;
43248;SDS011;29216;51.248;6.808;2023-02-28T01:36:11;8.37;;;4.40;;
43248;SDS011;29216;51.248;6.808;2023-02-28T01:38:38;7.07;;;4.20;;
43248;SDS011;29216;51.248;6.808;2023-02-28T01:41:04;6.90;;;4.07;;
43248;SDS011;29216;51.248;6.808;2023-02-28T01:43:32;8.83;;;3.90;;
43248;SDS011;29216;51.248;6.808;2023-02-28T01:46:17;11.13;;;4.00;;
43248;SDS011;29216;51.248;6.808;2023-02-28T01:48:44;11.73;;;4.73;;
43248;SDS011;29216;51.248;6.808;2023-02-28T01:51:12;9.60;;;4.07;;
43248;SDS011;29216;51.248;6.808;2023-02-28T01:53:47;9.33;;;4.07;;
43248;SDS011;29216;51.248;6.808;2023-02-28T01:56:19;6.53;;;4.30;;
43248;SDS011;29216;51.248;6.808;2023-02-28T01:58:49;8.30;;;4.90;;
43248;SDS011;29216;51.248;6.808;2023-02-28T02:01:17;6.97;;;4.07;;
43248;SDS011;29216;51.248;6.808;2023-02-28T02:03:47;5.80;;;4.30;;
43248;SDS011;29216;51.248;6.808;2023-02-28T02:06:20;6.97;;;4.05;;
43248;SDS011;29216;51.248;6.808;2023-02-28T02:08:47;5.53;;;3.70;;
43248;SDS011;29216;51.248;6.808;2023-02-28T02:11:13;9.13;;;4.33;;
43248;SDS011;29216;51.248;6.808;2023-02-28T02:19:28;11.57;;;4.50;;
43248;SDS011;29216;51.248;6.808;2023-02-28T02:36:33;9.17;;;4.80;;
43248;SDS011;29216;51.248;6.808;2023-02-28T02:39:10;7.20;;;4.87;;
43248;SDS011;29216;51.248;6.808;2023-02-28T02:41:53;9.43;;;5.00;;
43248;SDS011;29216;51.248;6.808;2023-02-28T02:44:30;11.77;;;4.20;;
43248;SDS011;29216;51.248;6.808;2023-02-28T02:47:03;6.67;;;4.33;;
43248;SDS011;29216;51.248;6.808;2023-02-28T02:49:36;7.50;;;4.57;;
43248;SDS011;29216;51.248;6.808;2023-02-28T02:52:06;8.07;;;5.03;;
43248;SDS011;29216;51.248;6.808;2023-02-28T02:54:44;8.33;;;5.10;;
43248;SDS011;29216;51.248;6.808;2023-02-28T02:57:32;7.80;;;4.90;;
43248;SDS011;29216;51.248;6.808;2023-02-28T03:00:03;12.17;;;5.40;;
43248;SDS011;29216;51.248;6.808;2023-02-28T03:02:33;8.80;;;4.87;;
43248;SDS011;29216;51.248;6.808;2023-02-28T03:05:03;9.17;;;4.90;;
43248;SDS011;29216;51.248;6.808;2023-02-28T03:07:41;9.70;;;4.93;;
43248;SDS011;29216;51.248;6.808;2023-02-28T03:13:00;8.70;;;4.83;;
43248;SDS011;29216;51.248;6.808;2023-02-28T03:18:32;11.00;;;5.40;;
43248;SDS011;29216;51.248;6.808;2023-02-28T03:21:25;7.03;;;4.97;;
43248;SDS011;29216;51.248;6.808;2023-02-28T03:26:36;9.37;;;5.23;;
43248;SDS011;29216;51.248;6.808;2023-02-28T03:29:15;11.13;;;4.80;;
43248;SDS011;29216;51.248;6.808;2023-02-28T03:34:29;9.63;;;4.60;;
43248;SDS011;29216;51.248;6.808;2023-02-28T03:37:00;6.83;;;4.47;;
43248;SDS011;29216;51.248;6.808;2023-02-28T03:39:43;7.27;;;4.27;;
43248;SDS011;29216;51.248;6.808;2023-02-28T03:42:15;6.57;;;4.53;;
43248;SDS011;29216;51.248;6.808;2023-02-28T03:44:46;13.47;;;4.67;;
43248;SDS011;29216;51.248;6.808;2023-02-28T03:47:22;8.57;;;4.63;;
43248;SDS011;29216;51.248;6.808;2023-02-28T03:49:57;8.80;;;4.47;;
43248;SDS011;29216;51.248;6.808;2023-02-28T03:52:33;9.53;;;4.87;;
43248;SDS011;29216;51.248;6.808;2023-02-28T03:55:03;10.17;;;4.63;;
43248;SDS011;29216;51.248;6.808;2023-02-28T04:00:36;8.33;;;4.20;;
43248;SDS011;29216;51.248;6.808;2023-02-28T04:03:05;8.30;;;4.47;;
43248;SDS011;29216;51.248;6.808;2023-02-28T04:05:31;6.63;;;4.30;;
43248;SDS011;29216;51.248;6.808;2023-02-28T04:08:04;6.20;;;3.83;;
43248;SDS011;29216;51.248;6.808;2023-02-28T04:10:31;8.25;;;4.60;;
43248;SDS011;29216;51.248;6.808;2023-02-28T04:12:57;7.17;;;4.30;;
43248;SDS011;29216;51.248;6.808;2023-02-28T04:15:23;7.57;;;4.63;;
43248;SDS011;29216;51.248;6.808;2023-02-28T04:17:49;4.93;;;3.70;;
43248;SDS011;29216;51.248;6.808;2023-02-28T04:20:15;9.10;;;4.10;;
43248;SDS011;29216;51.248;6.808;2023-02-28T04:22:41;7.23;;;4.30;;
43248;SDS011;29216;51.248;6.808;2023-02-28T04:25:06;8.43;;;4.43;;
43248;SDS011;29216;51.248;6.808;2023-02-28T04:27:32;6.43;;;4.00;;
43248;SDS011;29216;51.248;6.808;2023-02-28T04:29:59;7.03;;;4.17;;
43248;SDS011;29216;51.248;6.808;2023-02-28T04:32:24;9.10;;;4.00;;
43248;SDS011;29216;51.248;6.808;2023-02-28T04:34:50;8.87;;;4.30;;
43248;SDS011;29216;51.248;6.808;2023-02-28T04:37:16;9.63;;;4.27;;
43248;SDS011;29216;51.248;6.808;2023-02-28T04:39:41;6.07;;;3.97;;
43248;SDS011;29216;51.248;6.808;2023-02-28T04:42:08;8.30;;;4.13;;
43248;SDS011;29216;51.248;6.808;2023-02-28T04:44:34;7.43;;;3.80;;
43248;SDS011;29216;51.248;6.808;2023-02-28T04:46:59;5.70;;;3.93;;
43248;SDS011;29216;51.248;6.808;2023-02-28T04:49:25;6.03;;;3.63;;
43248;SDS011;29216;51.248;6.808;2023-02-28T04:51:51;7.73;;;4.00;;
43248;SDS011;29216;51.248;6.808;2023-02-28T04:54:17;5.90;;;3.60;;
43248;SDS011;29216;51.248;6.808;2023-02-28T04:56:43;5.97;;;3.70;;
43248;SDS011;29216;51.248;6.808;2023-02-28T04:59:09;5.27;;;3.57;;
43248;SDS011;29216;51.248;6.808;2023-02-28T05:01:34;3.83;;;3.10;;
43248;SDS011;29216;51.248;6.808;2023-02-28T05:04:02;6.30;;;3.70;;
43248;SDS011;29216;51.248;6.808;2023-02-28T05:06:30;4.63;;;3.10;;
43248;SDS011;29216;51.248;6.808;2023-02-28T05:08:57;6.27;;;3.40;;
43248;SDS011;29216;51.248;6.808;2023-02-28T05:11:24;4.13;;;3.03;;
43248;SDS011;29216;51.248;6.808;2023-02-28T05:13:52;7.80;;;3.43;;
43248;SDS011;29216;51.248;6.808;2023-02-28T05:16:19;9.27;;;3.23;;
43248;SDS011;29216;51.248;6.808;2023-02-28T05:18:44;7.63;;;3.50;;
43248;SDS011;29216;51.248;6.808;2023-02-28T05:21:29;5.17;;;3.27;;
43248;SDS011;29216;51.248;6.808;2023-02-28T05:24:01;5.57;;;3.20;;
43248;SDS011;29216;51.248;6.808;2023-02-28T05:26:33;8.00;;;3.37;;
43248;SDS011;29216;51.248;6.808;2023-02-28T05:29:01;4.77;;;3.27;;
43248;SDS011;29216;51.248;6.808;2023-02-28T05:31:26;5.37;;;3.60;;
43248;SDS011;29216;51.248;6.808;2023-02-28T05:33:52;4.77;;;3.33;;
43248;SDS011;29216;51.248;6.808;2023-02-28T05:36:18;6.20;;;3.73;;
43248;SDS011;29216;51.248;6.808;2023-02-28T05:38:47;6.90;;;3.47;;
43248;SDS011;29216;51.248;6.808;2023-02-28T05:41:14;8.00;;;3.80;;
43248;SDS011;29216;51.248;6.808;2023-02-28T05:43:40;4.43;;;3.77;;
43248;SDS011;29216;51.248;6.808;2023-02-28T05:46:06;6.13;;;3.40;;
43248;SDS011;29216;51.248;6.808;2023-02-28T05:48:33;4.90;;;3.10;;
43248;SDS011;29216;51.248;6.808;2023-02-28T05:51:00;6.63;;;4.10;;
43248;SDS011;29216;51.248;6.808;2023-02-28T05:53:27;6.17;;;3.43;;
43248;SDS011;29216;51.248;6.808;2023-02-28T05:55:53;5.07;;;3.40;;
43248;SDS011;29216;51.248;6.808;2023-02-28T05:58:18;5.43;;;3.33;;
43248;SDS011;29216;51.248;6.808;2023-02-28T06:00:44;5.30;;;3.20;;
43248;SDS011;29216;51.248;6.808;2023-02-28T06:03:10;4.20;;;3.13;;
43248;SDS011;29216;51.248;6.808;2023-02-28T06:05:36;5.50;;;3.50;;
43248;SDS011;29216;51.248;6.808;2023-02-28T06:08:03;6.90;;;4.10;;
43248;SDS011;29216;51.248;6.808;2023-02-28T06:10:30;5.50;;;3.50;;
43248;SDS011;29216;51.248;6.808;2023-02-28T06:12:59;6.87;;;3.83;;
43248;SDS011;29216;51.248;6.808;2023-02-28T06:15:27;5.37;;;3.50;;
43248;SDS011;29216;51.248;6.808;2023-02-28T06:17:53;5.00;;;3.40;;
43248;SDS011;29216;51.248;6.808;2023-02-28T06:20:21;5.53;;;3.67;;
43248;SDS011;29216;51.248;6.808;2023-02-28T06:22:48;5.77;;;3.47;;
43248;SDS011;29216;51.248;6.808;2023-02-28T06:25:16;5.80;;;3.50;;
43248;SDS011;29216;51.248;6.808;2023-02-28T06:27:42;5.27;;;3.37;;
43248;SDS011;29216;51.248;6.808;2023-02-28T06:30:08;5.03;;;3.47;;
43248;SDS011;29216;51.248;6.808;2023-02-28T06:32:34;5.43;;;3.30;;
43248;SDS011;29216;51.248;6.808;2023-02-28T06:35:04;6.50;;;3.57;;
43248;SDS011;29216;51.248;6.808;2023-02-28T06:37:30;4.40;;;3.10;;
43248;SDS011;29216;51.248;6.808;2023-02-28T06:39:56;5.83;;;3.43;;
43248;SDS011;29216;51.248;6.808;2023-02-28T06:42:23;6.20;;;3.13;;
43248;SDS011;29216;51.248;6.808;2023-02-28T06:44:54;5.20;;;3.00;;
43248;SDS011;29216;51.248;6.808;2023-02-28T06:47:20;5.47;;;3.30;;
43248;SDS011;29216;51.248;6.808;2023-02-28T06:49:46;4.40;;;3.13;;
43248;SDS011;29216;51.248;6.808;2023-02-28T06:52:12;5.73;;;3.43;;
43248;SDS011;29216;51.248;6.808;2023-02-28T06:54:38;5.20;;;3.67;;
43248;SDS011;29216;51.248;6.808;2023-02-28T06:57:03;5.13;;;3.37;;
43248;SDS011;29216;51.248;6.808;2023-02-28T06:59:29;7.13;;;3.53;;
43248;SDS011;29216;51.248;6.808;2023-02-28T07:01:55;5.23;;;3.13;;
43248;SDS011;29216;51.248;6.808;2023-02-28T07:04:21;4.60;;;3.13;;
43248;SDS011;29216;51.248;6.808;2023-02-28T07:06:47;4.93;;;3.37;;
43248;SDS011;29216;51.248;6.808;2023-02-28T07:09:12;6.10;;;2.97;;
43248;SDS011;29216;51.248;6.808;2023-02-28T07:11:39;5.07;;;3.20;;
43248;SDS011;29216;51.248;6.808;2023-02-28T07:14:06;4.77;;;3.10;;
43248;SDS011;29216;51.248;6.808;2023-02-28T07:16:32;5.97;;;3.17;;
43248;SDS011;29216;51.248;6.808;2023-02-28T07:18:58;4.03;;;2.93;;
43248;SDS011;29216;51.248;6.808;2023-02-28T07:21:23;4.15;;;2.90;;
43248;SDS011;29216;51.248;6.808;2023-02-28T07:23:49;4.18;;;2.88;;
43248;SDS011;29216;51.248;6.808;2023-02-28T07:26:15;4.15;;;2.45;;
43248;SDS011;29216;51.248;6.808;2023-02-28T07:28:43;5.25;;;2.80;;
43248;SDS011;29216;51.248;6.808;2023-02-28T07:31:10;7.25;;;2.78;;
43248;SDS011;29216;51.248;6.808;2023-02-28T07:33:36;5.38;;;2.90;;
43248;SDS011;29216;51.248;6.808;2023-02-28T07:36:03;3.42;;;2.30;;
43248;SDS011;29216;51.248;6.808;2023-02-28T07:38:33;4.55;;;3.05;;
43248;SDS011;29216;51.248;6.808;2023-02-28T07:41:00;4.15;;;2.67;;
43248;SDS011;29216;51.248;6.808;2023-02-28T07:43:29;8.25;;;2.88;;
43248;SDS011;29216;51.248;6.808;2023-02-28T07:45:55;5.20;;;3.00;;
43248;SDS011;29216;51.248;6.808;2023-02-28T07:48:21;7.80;;;3.08;;
43248;SDS011;29216;51.248;6.808;2023-02-28T07:50:53;3.08;;;2.30;;
43248;SDS011;29216;51.248;6.808;2023-02-28T07:53:23;3.60;;;2.58;;
43248;SDS011;29216;51.248;6.808;2023-02-28T07:55:48;4.47;;;2.75;;
43248;SDS011;29216;51.248;6.808;2023-02-28T07:58:14;3.97;;;2.75;;
43248;SDS011;29216;51.248;6.808;2023-02-28T08:00:41;5.55;;;2.67;;
43248;SDS011;29216;51.248;6.808;2023-02-28T08:03:08;4.40;;;2.72;;
43248;SDS011;29216;51.248;6.808;2023-02-28T08:05:39;3.92;;;2.35;;
43248;SDS011;29216;51.248;6.808;2023-02-28T08:08:05;10.45;;;2.70;;
43248;SDS011;29216;51.248;6.808;2023-02-28T08:10:32;4.78;;;2.50;;
43248;SDS011;29216;51.248;6.808;2023-02-28T08:12:57;2.88;;;2.45;;
43248;SDS011;29216;51.248;6.808;2023-02-28T08:15:23;4.95;;;2.40;;
43248;SDS011;29216;51.248;6.808;2023-02-28T08:17:48;5.03;;;2.30;;
43248;SDS011;29216;51.248;6.808;2023-02-28T08:20:14;2.60;;;2.20;;
43248;SDS011;29216;51.248;6.808;2023-02-28T08:22:39;5.55;;;2.95;;
43248;SDS011;29216;51.248;6.808;2023-02-28T08:25:06;3.83;;;2.60;;
43248;SDS011;29216;51.248;6.808;2023-02-28T08:27:32;3.78;;;2.50;;
43248;SDS011;29216;51.248;6.808;2023-02-28T08:29:58;3.22;;;2.60;;
43248;SDS011;29216;51.248;6.808;2023-02-28T08:32:24;3.88;;;2.58;;
43248;SDS011;29216;51.248;6.808;2023-02-28T08:34:49;3.25;;;2.40;;
43248;SDS011;29216;51.248;6.808;2023-02-28T08:37:16;6.45;;;3.20;;
43248;SDS011;29216;51.248;6.808;2023-02-28T08:39:41;2.92;;;2.38;;
43248;SDS011;29216;51.248;6.808;2023-02-28T08:42:07;4.13;;;2.50;;
43248;SDS011;29216;51.248;6.808;2023-02-28T08:44:33;2.95;;;2.35;;
43248;SDS011;29216;51.248;6.808;2023-02-28T08:46:58;5.32;;;2.33;;
43248;SDS011;29216;51.248;6.808;2023-02-28T08:49:24;2.50;;;2.13;;
43248;SDS011;29216;51.248;6.808;2023-02-28T08:51:49;2.88;;;2.20;;
43248;SDS011;29216;51.248;6.808;2023-02-28T08:54:15;5.53;;;2.22;;
43248;SDS011;29216;51.248;6.808;2023-02-28T08:56:44;2.92;;;2.20;;
43248;SDS011;29216;51.248;6.808;2023-02-28T08:59:11;7.38;;;2.70;;
43248;SDS011;29216;51.248;6.808;2023-02-28T09:01:37;2.97;;;2.40;;
43248;SDS011;29216;51.248;6.808;2023-02-28T09:04:02;3.75;;;2.28;;
43248;SDS011;29216;51.248;6.808;2023-02-28T09:06:28;2.40;;;2.10;;
43248;SDS011;29216;51.248;6.808;2023-02-28T09:08:57;2.55;;;2.17;;
43248;SDS011;29216;51.248;6.808;2023-02-28T09:11:24;3.45;;;2.20;;
43248;SDS011;29216;51.248;6.808;2023-02-28T09:13:50;4.07;;;2.17;;
43248;SDS011;29216;51.248;6.808;2023-02-28T09:16:16;3.08;;;2.22;;
43248;SDS011;29216;51.248;6.808;2023-02-28T09:18:42;3.65;;;2.25;;
43248;SDS011;29216;51.248;6.808;2023-02-28T09:21:10;2.53;;;2.33;;
43248;SDS011;29216;51.248;6.808;2023-02-28T09:23:39;3.40;;;2.15;;
43248;SDS011;29216;51.248;6.808;2023-02-28T09:26:07;3.35;;;2.13;;
43248;SDS011;29216;51.248;6.808;2023-02-28T09:28:37;3.47;;;2.20;;
43248;SDS011;29216;51.248;6.808;2023-02-28T09:31:03;4.15;;;2.33;;
43248;SDS011;29216;51.248;6.808;2023-02-28T09:33:29;4.53;;;2.28;;
43248;SDS011;29216;51.248;6.808;2023-02-28T09:35:59;5.72;;;2.20;;
43248;SDS011;29216;51.248;6.808;2023-02-28T09:38:26;4.50;;;2.30;;
43248;SDS011;29216;51.248;6.808;2023-02-28T09:40:54;4.60;;;2.10;;
43248;SDS011;29216;51.248;6.808;2023-02-28T09:43:25;2.70;;;2.03;;
43248;SDS011;29216;51.248;6.808;2023-02-28T09:46:37;3.55;;;2.17;;
43248;SDS011;29216;51.248;6.808;2023-02-28T09:48:54;3.40;;;2.00;;
43248;SDS011;29216;51.248;6.808;2023-02-28T09:57:17;2.35;;;2.15;;
43248;SDS011;29216;51.248;6.808;2023-02-28T10:05:39;2.15;;;1.95;;
43248;SDS011;29216;51.248;6.808;2023-02-28T10:08:14;3.90;;;2.30;;
43248;SDS011;29216;51.248;6.808;2023-02-28T10:11:06;3.13;;;2.30;;
43248;SDS011;29216;51.248;6.808;2023-02-28T10:16:02;2.60;;;2.17;;
43248;SDS011;29216;51.248;6.808;2023-02-28T10:18:43;8.23;;;2.40;;
43248;SDS011;29216;51.248;6.808;2023-02-28T10:21:15;2.83;;;2.17;;
43248;SDS011;29216;51.248;6.808;2023-02-28T10:23:44;2.53;;;2.05;;
43248;SDS011;29216;51.248;6.808;2023-02-28T10:26:13;2.83;;;2.17;;
43248;SDS011;29216;51.248;6.808;2023-02-28T10:28:41;3.00;;;2.10;;
43248;SDS011;29216;51.248;6.808;2023-02-28T10:31:08;3.72;;;2.20;;
43248;SDS011;29216;51.248;6.808;2023-02-28T10:33:39;2.10;;;1.90;;
43248;SDS011;29216;51.248;6.808;2023-02-28T10:36:05;2.90;;;2.20;;
43248;SDS011;29216;51.248;6.808;2023-02-28T10:38:36;2.78;;;2.10;;
43248;SDS011;29216;51.248;6.808;2023-02-28T10:41:06;5.10;;;2.20;;
43248;SDS011;29216;51.248;6.808;2023-02-28T10:43:33;5.50;;;2.30;;
43248;SDS011;29216;51.248;6.808;2023-02-28T10:46:00;2.70;;;2.17;;
43248;SDS011;29216;51.248;6.808;2023-02-28T10:51:25;3.92;;;2.17;;
43248;SDS011;29216;51.248;6.808;2023-02-28T10:54:01;2.65;;;1.80;;
43248;SDS011;29216;51.248;6.808;2023-02-28T10:56:28;3.00;;;2.20;;
43248;SDS011;29216;51.248;6.808;2023-02-28T11:06:58;2.67;;;1.90;;
43248;SDS011;29216;51.248;6.808;2023-02-28T11:09:27;2.60;;;1.75;;
43248;SDS011;29216;51.248;6.808;2023-02-28T11:11:57;3.95;;;2.03;;
43248;SDS011;29216;51.248;6.808;2023-02-28T11:14:27;4.97;;;2.03;;
43248;SDS011;29216;51.248;6.808;2023-02-28T11:16:54;1.95;;;1.85;;
43248;SDS011;29216;51.248;6.808;2023-02-28T11:19:38;2.35;;;2.05;;
43248;SDS011;29216;51.248;6.808;2023-02-28T11:22:08;2.50;;;2.03;;
43248;SDS011;29216;51.248;6.808;2023-02-28T11:24:42;2.28;;;2.00;;
43248;SDS011;29216;51.248;6.808;2023-02-28T11:29:55;2.47;;;1.90;;
43248;SDS011;29216;51.248;6.808;2023-02-28T11:32:22;3.42;;;2.30;;
43248;SDS011;29216;51.248;6.808;2023-02-28T11:37:27;3.58;;;1.92;;
43248;SDS011;29216;51.248;6.808;2023-02-28T11:39:54;2.65;;;2.25;;
43248;SDS011;29216;51.248;6.808;2023-02-28T11:45:21;3.53;;;2.25;;
43248;SDS011;29216;51.248;6.808;2023-02-28T11:56:55;3.17;;;2.00;;
43248;SDS011;29216;51.248;6.808;2023-02-28T12:07:28;5.68;;;2.97;;
43248;SDS011;29216;51.248;6.808;2023-02-28T12:10:05;2.45;;;2.25;;
43248;SDS011;29216;51.248;6.808;2023-02-28T12:28:50;6.15;;;2.38;;
43248;SDS011;29216;51.248;6.808;2023-02-28T12:34:18;6.00;;;2.42;;
43248;SDS011;29216;51.248;6.808;2023-02-28T12:36:48;3.78;;;2.10;;
43248;SDS011;29216;51.248;6.808;2023-02-28T12:39:18;6.47;;;2.53;;
43248;SDS011;29216;51.248;6.808;2023-02-28T12:44:51;3.75;;;2.30;;
43248;SDS011;29216;51.248;6.808;2023-02-28T12:47:21;4.32;;;2.50;;
43248;SDS011;29216;51.248;6.808;2023-02-28T12:52:25;2.63;;;2.20;;
43248;SDS011;29216;51.248;6.808;2023-02-28T12:57:49;6.30;;;2.25;;
43248;SDS011;29216;51.248;6.808;2023-02-28T13:00:38;4.10;;;2.35;;
43248;SDS011;29216;51.248;6.808;2023-02-28T13:08:37;3.10;;;2.28;;
43248;SDS011;29216;51.248;6.808;2023-02-28T13:11:24;3.60;;;2.33;;
43248;SDS011;29216;51.248;6.808;2023-02-28T13:14:04;2.45;;;2.10;;
43248;SDS011;29216;51.248;6.808;2023-02-28T13:19:25;3.13;;;2.37;;
43248;SDS011;29216;51.248;6.808;2023-02-28T13:21:53;4.82;;;2.20;;
43248;SDS011;29216;51.248;6.808;2023-02-28T13:24:37;3.38;;;2.40;;
43248;SDS011;29216;51.248;6.808;2023-02-28T13:29:34;2.75;;;2.30;;
43248;SDS011;29216;51.248;6.808;2023-02-28T13:34:49;4.03;;;2.17;;
43248;SDS011;29216;51.248;6.808;2023-02-28T13:47:30;3.13;;;2.10;;
43248;SDS011;29216;51.248;6.808;2023-02-28T14:06:23;3.17;;;2.35;;
43248;SDS011;29216;51.248;6.808;2023-02-28T14:08:58;3.47;;;2.50;;
43248;SDS011;29216;51.248;6.808;2023-02-28T14:11:30;2.85;;;2.35;;
43248;SDS011;29216;51.248;6.808;2023-02-28T14:13:58;3.28;;;2.17;;
43248;SDS011;29216;51.248;6.808;2023-02-28T14:16:26;6.05;;;2.40;;
43248;SDS011;29216;51.248;6.808;2023-02-28T14:19:05;4.57;;;2.60;;
43248;SDS011;29216;51.248;6.808;2023-02-28T14:21:38;2.97;;;2.20;;
43248;SDS011;29216;51.248;6.808;2023-02-28T14:27:20;3.83;;;2.72;;
43248;SDS011;29216;51.248;6.808;2023-02-28T14:32:58;3.72;;;2.40;;
43248;SDS011;29216;51.248;6.808;2023-02-28T14:36:01;6.47;;;2.67;;
43248;SDS011;29216;51.248;6.808;2023-02-28T14:38:50;8.77;;;2.88;;
43248;SDS011;29216;51.248;6.808;2023-02-28T14:44:00;4.00;;;2.70;;
43248;SDS011;29216;51.248;6.808;2023-02-28T14:46:35;2.70;;;2.40;;
43248;SDS011;29216;51.248;6.808;2023-02-28T14:49:04;4.30;;;2.78;;
43248;SDS011;29216;51.248;6.808;2023-02-28T14:51:32;3.45;;;2.70;;
43248;SDS011;29216;51.248;6.808;2023-02-28T14:53:59;6.82;;;2.55;;
43248;SDS011;29216;51.248;6.808;2023-02-28T14:56:27;6.00;;;2.63;;
43248;SDS011;29216;51.248;6.808;2023-02-28T14:59:02;7.20;;;2.75;;
43248;SDS011;29216;51.248;6.808;2023-02-28T15:01:28;4.30;;;2.67;;
43248;SDS011;29216;51.248;6.808;2023-02-28T15:03:58;5.35;;;2.38;;
43248;SDS011;29216;51.248;6.808;2023-02-28T15:06:27;3.40;;;2.60;;
43248;SDS011;29216;51.248;6.808;2023-02-28T15:11:48;12.48;;;3.03;;
43248;SDS011;29216;51.248;6.808;2023-02-28T15:14:16;5.03;;;2.60;;
43248;SDS011;29216;51.248;6.808;2023-02-28T15:16:44;3.15;;;2.33;;
43248;SDS011;29216;51.248;6.808;2023-02-28T15:19:19;4.85;;;2.78;;
43248;SDS011;29216;51.248;6.808;2023-02-28T15:21:49;4.28;;;2.88;;
43248;SDS011;29216;51.248;6.808;2023-02-28T15:27:13;3.35;;;2.50;;
43248;SDS011;29216;51.248;6.808;2023-02-28T15:29:46;4.18;;;2.60;;
43248;SDS011;29216;51.248;6.808;2023-02-28T15:32:27;4.20;;;2.85;;
43248;SDS011;29216;51.248;6.808;2023-02-28T15:34:58;3.08;;;2.70;;
43248;SDS011;29216;51.248;6.808;2023-02-28T15:38:16;3.72;;;2.58;;
43248;SDS011;29216;51.248;6.808;2023-02-28T15:40:50;3.42;;;2.35;;
43248;SDS011;29216;51.248;6.808;2023-02-28T15:43:24;3.45;;;2.63;;
43248;SDS011;29216;51.248;6.808;2023-02-28T15:45:51;4.40;;;2.90;;
43248;SDS011;29216;51.248;6.808;2023-02-28T15:51:01;5.25;;;3.97;;
43248;SDS011;29216;51.248;6.808;2023-02-28T15:53:36;5.32;;;2.55;;
43248;SDS011;29216;51.248;6.808;2023-02-28T15:58:54;3.67;;;2.65;;
43248;SDS011;29216;51.248;6.808;2023-02-28T16:01:28;3.28;;;2.63;;
43248;SDS011;29216;51.248;6.808;2023-02-28T16:04:20;2.90;;;2.60;;
43248;SDS011;29216;51.248;6.808;2023-02-28T16:06:46;2.50;;;2.23;;
43248;SDS011;29216;51.248;6.808;2023-02-28T16:09:24;6.25;;;2.88;;
43248;SDS011;29216;51.248;6.808;2023-02-28T16:11:53;4.85;;;2.95;;
43248;SDS011;29216;51.248;6.808;2023-02-28T16:14:22;4.63;;;2.92;;
43248;SDS011;29216;51.248;6.808;2023-02-28T16:16:51;4.07;;;3.00;;
43248;SDS011;29216;51.248;6.808;2023-02-28T16:19:18;4.45;;;2.88;;
43248;SDS011;29216;51.248;6.808;2023-02-28T16:21:44;4.85;;;2.88;;
43248;SDS011;29216;51.248;6.808;2023-02-28T16:24:10;5.18;;;2.67;;
43248;SDS011;29216;51.248;6.808;2023-02-28T16:26:36;4.43;;;2.70;;
43248;SDS011;29216;51.248;6.808;2023-02-28T16:29:12;4.22;;;2.70;;
43248;SDS011;29216;51.248;6.808;2023-02-28T16:31:42;6.25;;;2.60;;
43248;SDS011;29216;51.248;6.808;2023-02-28T16:34:07;5.03;;;2.60;;
43248;SDS011;29216;51.248;6.808;2023-02-28T16:36:33;4.75;;;2.97;;
43248;SDS011;29216;51.248;6.808;2023-02-28T16:38:59;6.80;;;3.05;;
43248;SDS011;29216;51.248;6.808;2023-02-28T16:41:25;6.90;;;3.33;;
43248;SDS011;29216;51.248;6.808;2023-02-28T16:43:53;4.45;;;2.72;;
43248;SDS011;29216;51.248;6.808;2023-02-28T16:46:26;3.55;;;2.63;;
43248;SDS011;29216;51.248;6.808;2023-02-28T16:48:56;8.38;;;2.83;;
43248;SDS011;29216;51.248;6.808;2023-02-28T16:51:22;3.35;;;2.65;;
43248;SDS011;29216;51.248;6.808;2023-02-28T16:53:48;4.55;;;3.30;;
43248;SDS011;29216;51.248;6.808;2023-02-28T16:56:20;3.38;;;2.78;;
43248;SDS011;29216;51.248;6.808;2023-02-28T16:58:48;5.00;;;3.03;;
43248;SDS011;29216;51.248;6.808;2023-02-28T17:01:15;4.90;;;2.58;;
43248;SDS011;29216;51.248;6.808;2023-02-28T17:03:41;3.08;;;2.70;;
43248;SDS011;29216;51.248;6.808;2023-02-28T17:06:17;5.20;;;3.05;;
43248;SDS011;29216;51.248;6.808;2023-02-28T17:08:52;3.67;;;2.45;;
43248;SDS011;29216;51.248;6.808;2023-02-28T17:11:19;6.30;;;3.17;;
43248;SDS011;29216;51.248;6.808;2023-02-28T17:13:45;4.82;;;2.90;;
43248;SDS011;29216;51.248;6.808;2023-02-28T17:18:50;4.57;;;2.90;;
43248;SDS011;29216;51.248;6.808;2023-02-28T17:21:16;9.07;;;3.05;;
43248;SDS011;29216;51.248;6.808;2023-02-28T17:23:42;4.22;;;2.95;;
43248;SDS011;29216;51.248;6.808;2023-02-28T17:26:15;4.28;;;3.33;;
43248;SDS011;29216;51.248;6.808;2023-02-28T17:28:49;5.28;;;3.20;;
43248;SDS011;29216;51.248;6.808;2023-02-28T17:31:16;3.55;;;3.00;;
43248;SDS011;29216;51.248;6.808;2023-02-28T17:33:42;4.63;;;3.22;;
43248;SDS011;29216;51.248;6.808;2023-02-28T17:36:15;4.90;;;3.10;;
43248;SDS011;29216;51.248;6.808;2023-02-28T17:38:46;3.65;;;2.80;;
43248;SDS011;29216;51.248;6.808;2023-02-28T17:41:12;7.10;;;3.28;;
43248;SDS011;29216;51.248;6.808;2023-02-28T17:43:38;3.47;;;3.03;;
43248;SDS011;29216;51.248;6.808;2023-02-28T17:46:04;4.65;;;3.00;;
43248;SDS011;29216;51.248;6.808;2023-02-28T17:48:31;4.45;;;3.15;;
43248;SDS011;29216;51.248;6.808;2023-02-28T17:50:57;3.90;;;2.80;;
43248;SDS011;29216;51.248;6.808;2023-02-28T17:53:23;5.47;;;3.45;;
43248;SDS011;29216;51.248;6.808;2023-02-28T17:55:49;6.22;;;3.20;;